createdAt,value
2017-09-13T00:02:23.059Z,0.83
2017-09-13T00:04:51.404Z,0.77
2017-09-13T00:07:19.731Z,0.90
2017-09-13T00:09:48.841Z,0.80
2017-09-13T00:12:17.930Z,0.83
2017-09-13T00:14:47.072Z,0.63
2017-09-13T00:17:15.399Z,1.10
2017-09-13T00:19:44.510Z,1.10
2017-09-13T00:22:13.599Z,1.60
2017-09-13T00:24:42.687Z,1.37
2017-09-13T00:27:11.037Z,1.33
2017-09-13T00:29:39.359Z,0.80
2017-09-13T00:32:08.447Z,0.70
2017-09-13T00:34:36.790Z,0.90
2017-09-13T00:37:05.114Z,1.10
2017-09-13T00:39:34.207Z,1.00
2017-09-13T00:42:03.317Z,0.77
2017-09-13T00:44:32.401Z,1.50
2017-09-13T00:47:00.758Z,0.93
2017-09-13T00:49:29.078Z,0.80
2017-09-13T00:51:58.180Z,1.30
2017-09-13T00:54:27.298Z,1.07
2017-09-13T00:56:55.617Z,1.10
2017-09-13T00:59:23.967Z,1.30
2017-09-13T01:01:52.315Z,0.90
2017-09-13T01:04:20.671Z,1.27
2017-09-13T01:06:48.994Z,1.37
2017-09-13T01:09:17.319Z,1.03
2017-09-13T01:11:45.667Z,1.10
2017-09-13T01:14:13.983Z,1.10
2017-09-13T01:16:42.319Z,1.20
2017-09-13T01:19:10.666Z,1.00
2017-09-13T01:21:39.751Z,0.93
2017-09-13T01:24:08.098Z,1.47
2017-09-13T01:26:36.421Z,1.43
2017-09-13T01:29:04.767Z,2.03
2017-09-13T01:31:33.123Z,1.00
2017-09-13T01:34:01.440Z,1.20
2017-09-13T01:36:29.759Z,1.60
2017-09-13T01:38:58.098Z,1.13
2017-09-13T01:41:26.434Z,1.20
2017-09-13T01:43:54.774Z,1.10
2017-09-13T01:46:23.858Z,1.17
2017-09-13T01:48:52.180Z,1.13
2017-09-13T01:51:20.523Z,1.47
2017-09-13T01:53:48.851Z,1.33
2017-09-13T01:56:17.194Z,1.20
2017-09-13T01:58:46.274Z,1.13
2017-09-13T02:01:14.619Z,1.17
2017-09-13T02:03:42.933Z,1.50
2017-09-13T02:06:11.251Z,1.50
2017-09-13T02:08:39.586Z,0.90
2017-09-13T02:11:07.906Z,2.43
2017-09-13T02:13:36.986Z,1.90
2017-09-13T02:16:06.091Z,1.10
2017-09-13T02:18:35.174Z,1.03
2017-09-13T02:21:03.521Z,1.00
2017-09-13T02:23:31.842Z,0.90
2017-09-13T02:26:00.942Z,1.50
2017-09-13T02:28:30.055Z,1.00
2017-09-13T02:30:58.383Z,0.87
2017-09-13T02:33:26.698Z,1.10
2017-09-13T02:35:55.804Z,1.53
2017-09-13T02:38:24.890Z,0.83
2017-09-13T02:40:53.982Z,0.97
2017-09-13T02:43:22.320Z,1.40
2017-09-13T02:45:50.646Z,1.10
2017-09-13T02:48:19.763Z,0.90
2017-09-13T02:50:48.842Z,1.30
2017-09-13T02:53:17.955Z,1.00
2017-09-13T02:55:47.043Z,1.03
2017-09-13T02:58:16.126Z,1.13
2017-09-13T03:00:44.470Z,1.10
2017-09-13T03:03:12.787Z,0.80
2017-09-13T03:05:41.129Z,1.00
2017-09-13T03:08:09.446Z,1.00
2017-09-13T03:10:37.777Z,0.90
2017-09-13T03:13:06.121Z,1.10
2017-09-13T03:15:35.202Z,0.93
2017-09-13T03:18:03.547Z,1.40
2017-09-13T03:20:31.862Z,1.17
2017-09-13T03:23:00.189Z,1.27
2017-09-13T03:25:28.540Z,1.40
2017-09-13T03:27:57.622Z,1.50
2017-09-13T03:30:25.940Z,1.63
2017-09-13T03:32:55.170Z,1.37
2017-09-13T03:35:23.493Z,1.30
2017-09-13T03:37:52.578Z,1.13
2017-09-13T03:40:20.922Z,1.37
2017-09-13T03:42:49.242Z,1.50
2017-09-13T03:45:18.343Z,1.10
2017-09-13T03:47:47.458Z,1.30
2017-09-13T03:50:16.544Z,2.20
2017-09-13T03:52:45.655Z,0.90
2017-09-13T03:55:13.977Z,1.23
2017-09-13T03:57:42.293Z,1.20
2017-09-13T04:00:11.474Z,1.53
2017-09-13T04:02:39.790Z,1.13
2017-09-13T04:05:08.874Z,1.40
2017-09-13T04:07:37.981Z,1.80
2017-09-13T04:10:07.070Z,1.63
2017-09-13T04:12:36.195Z,1.43
2017-09-13T04:15:04.521Z,1.90
2017-09-13T04:17:32.838Z,1.60
2017-09-13T04:20:01.947Z,1.20
2017-09-13T04:22:30.270Z,1.60
2017-09-13T04:24:58.609Z,1.23
2017-09-13T04:27:26.925Z,1.20
2017-09-13T04:29:55.250Z,1.47
2017-09-13T04:32:24.355Z,1.10
2017-09-13T04:34:53.445Z,1.87
2017-09-13T04:37:22.526Z,1.30
2017-09-13T04:39:50.866Z,1.40
2017-09-13T04:42:19.182Z,1.40
2017-09-13T04:44:47.528Z,2.00
2017-09-13T04:47:15.867Z,1.30
2017-09-13T04:49:44.979Z,1.80
2017-09-13T04:52:13.309Z,1.63
2017-09-13T04:54:42.630Z,1.90
2017-09-13T04:57:11.031Z,1.87
2017-09-13T04:59:40.113Z,1.60
2017-09-13T05:02:09.224Z,1.50
2017-09-13T05:04:38.307Z,1.53
2017-09-13T05:07:07.414Z,1.63
2017-09-13T05:09:36.494Z,1.70
2017-09-13T05:12:04.807Z,0.80
2017-09-13T05:14:33.153Z,1.20
2017-09-13T05:17:01.485Z,1.43
2017-09-13T05:19:29.803Z,1.60
2017-09-13T05:21:58.146Z,1.63
2017-09-13T05:24:26.468Z,1.27
2017-09-13T05:26:54.838Z,1.70
2017-09-13T05:29:23.156Z,1.10
2017-09-13T05:31:52.283Z,1.70
2017-09-13T05:34:20.598Z,0.97
2017-09-13T05:36:49.010Z,0.73
2017-09-13T05:39:18.114Z,0.97
2017-09-13T05:41:47.261Z,1.60
2017-09-13T05:44:15.609Z,1.17
2017-09-13T05:46:43.922Z,0.90
2017-09-13T05:49:12.286Z,1.20
2017-09-13T05:51:40.598Z,1.07
2017-09-13T05:54:08.962Z,1.23
2017-09-13T05:56:37.310Z,1.10
2017-09-13T05:59:05.623Z,1.20
2017-09-13T06:01:33.969Z,2.40
2017-09-13T06:04:02.286Z,1.83
2017-09-13T06:06:30.606Z,1.33
2017-09-13T06:08:59.710Z,1.20
2017-09-13T06:11:28.792Z,1.23
2017-09-13T06:13:57.902Z,0.80
2017-09-13T06:16:26.987Z,1.00
2017-09-13T06:18:56.131Z,1.33
2017-09-13T06:21:24.430Z,0.80
2017-09-13T06:23:52.778Z,0.90
2017-09-13T06:26:21.094Z,1.17
2017-09-13T06:28:49.409Z,0.93
2017-09-13T06:31:18.523Z,1.10
2017-09-13T06:33:46.838Z,0.90
2017-09-13T06:36:15.155Z,1.77
2017-09-13T06:38:43.494Z,0.50
2017-09-13T06:41:11.811Z,0.70
2017-09-13T06:43:40.130Z,0.70
2017-09-13T06:46:08.474Z,0.67
2017-09-13T06:48:36.790Z,0.57
2017-09-13T06:51:05.110Z,0.80
2017-09-13T06:53:33.468Z,0.60
2017-09-13T06:56:01.789Z,0.60
2017-09-13T06:58:30.109Z,0.50
2017-09-13T07:00:58.452Z,0.43
2017-09-13T07:03:26.774Z,0.40
2017-09-13T07:05:55.086Z,0.50
2017-09-13T07:08:23.428Z,0.50
2017-09-13T07:10:51.745Z,0.53
2017-09-13T07:13:20.058Z,0.60
2017-09-13T07:15:49.167Z,0.50
2017-09-13T07:18:18.250Z,0.73
2017-09-13T07:20:47.336Z,0.70
2017-09-13T07:23:15.682Z,0.50
2017-09-13T07:25:44.013Z,0.27
2017-09-13T07:28:13.126Z,0.47
2017-09-13T07:30:41.447Z,0.40
2017-09-13T07:33:09.777Z,0.33
2017-09-13T07:35:38.886Z,0.20
2017-09-13T07:38:07.206Z,0.40
2017-09-13T07:40:35.551Z,0.50
2017-09-13T07:43:03.870Z,0.40
2017-09-13T07:45:32.220Z,0.50
2017-09-13T07:48:00.534Z,0.30
2017-09-13T07:50:28.851Z,0.47
2017-09-13T07:52:57.955Z,0.20
2017-09-13T07:55:27.047Z,0.20
2017-09-13T07:57:56.155Z,0.23
2017-09-13T08:00:24.470Z,0.20
2017-09-13T08:02:52.786Z,0.30
2017-09-13T08:05:21.131Z,0.20
2017-09-13T08:07:49.445Z,0.47
2017-09-13T08:10:17.767Z,0.30
2017-09-13T08:12:46.107Z,0.30
2017-09-13T08:15:14.422Z,0.30
2017-09-13T08:17:42.739Z,0.30
2017-09-13T08:20:11.085Z,0.30
2017-09-13T08:22:39.403Z,0.20
2017-09-13T08:25:07.753Z,0.23
2017-09-13T08:27:36.066Z,0.20
2017-09-13T08:30:04.390Z,0.20
2017-09-13T08:32:32.731Z,0.23
2017-09-13T08:35:01.056Z,0.20
2017-09-13T08:37:29.398Z,0.20
2017-09-13T08:39:57.714Z,0.20
2017-09-13T08:42:26.034Z,0.30
2017-09-13T08:44:54.379Z,0.20
2017-09-13T08:47:22.699Z,0.20
2017-09-13T08:49:51.051Z,0.20
2017-09-13T08:52:19.366Z,0.20
2017-09-13T08:54:47.682Z,0.30
2017-09-13T08:57:16.799Z,0.40
2017-09-13T08:59:45.118Z,0.40
2017-09-13T09:02:13.440Z,0.90
2017-09-13T09:04:41.783Z,0.70
2017-09-13T09:07:10.097Z,0.80
2017-09-13T09:09:39.173Z,0.60
2017-09-13T09:12:07.517Z,0.77
2017-09-13T09:14:35.838Z,0.70
2017-09-13T09:17:04.922Z,0.80
2017-09-13T09:19:33.262Z,0.53
2017-09-13T09:22:01.579Z,0.60
2017-09-13T09:24:29.900Z,0.73
2017-09-13T09:26:58.248Z,0.30
2017-09-13T09:29:26.562Z,0.30
2017-09-13T09:31:54.904Z,0.40
2017-09-13T09:34:23.218Z,0.23
2017-09-13T09:36:51.530Z,0.40
2017-09-13T09:39:19.874Z,0.60
2017-09-13T09:41:48.191Z,0.47
2017-09-13T09:44:16.511Z,0.70
2017-09-13T09:46:45.618Z,0.50
2017-09-13T09:49:14.695Z,0.57
2017-09-13T09:51:43.042Z,0.60
2017-09-13T09:54:11.358Z,0.83
2017-09-13T09:56:39.674Z,1.10
2017-09-13T09:59:08.791Z,0.97
2017-09-13T10:01:37.107Z,1.10
2017-09-13T10:04:05.445Z,1.17
2017-09-13T10:06:33.764Z,1.20
2017-09-13T10:09:02.114Z,1.20
2017-09-13T10:11:30.430Z,0.97
2017-09-13T10:13:58.754Z,1.43
2017-09-13T10:16:27.110Z,0.70
2017-09-13T10:18:56.191Z,1.40
2017-09-13T10:21:24.532Z,1.07
2017-09-13T10:23:52.846Z,1.00
2017-09-13T10:26:21.163Z,0.90
2017-09-13T10:28:49.498Z,1.00
2017-09-13T10:31:17.850Z,1.00
2017-09-13T10:33:46.197Z,0.97
2017-09-13T10:36:15.263Z,1.00
2017-09-13T10:38:43.603Z,0.93
2017-09-13T10:41:11.949Z,0.70
2017-09-13T10:43:41.030Z,0.80
2017-09-13T10:46:09.356Z,0.90
2017-09-13T10:48:37.695Z,0.80
2017-09-13T10:51:06.774Z,0.63
2017-09-13T10:53:35.094Z,0.77
2017-09-13T10:56:03.426Z,1.10
2017-09-13T10:58:31.742Z,0.90
2017-09-13T11:01:00.827Z,0.90
2017-09-13T11:03:29.939Z,0.70
2017-09-13T11:05:59.037Z,0.80
2017-09-13T11:08:27.394Z,1.00
2017-09-13T11:10:55.716Z,1.00
2017-09-13T11:13:24.068Z,0.93
2017-09-13T11:15:53.150Z,0.97
2017-09-13T11:18:21.465Z,0.93
2017-09-13T11:20:49.803Z,0.80
2017-09-13T11:23:18.886Z,0.70
2017-09-13T11:25:47.239Z,0.53
2017-09-13T11:28:15.558Z,0.33
2017-09-13T11:30:43.878Z,0.30
2017-09-13T11:33:12.214Z,0.30
2017-09-13T11:35:40.534Z,0.40
2017-09-13T11:38:09.618Z,0.40
2017-09-13T11:40:38.731Z,0.43
2017-09-13T11:43:07.810Z,0.40
2017-09-13T11:45:36.918Z,0.40
2017-09-13T11:48:05.998Z,0.60
2017-09-13T11:50:34.323Z,0.50
2017-09-13T11:53:02.662Z,0.60
2017-09-13T11:55:31.751Z,0.83
2017-09-13T11:58:00.080Z,0.50
2017-09-13T12:00:28.423Z,0.60
2017-09-13T12:02:57.502Z,0.70
2017-09-13T12:05:25.848Z,0.60
2017-09-13T12:07:54.198Z,0.60
2017-09-13T12:10:22.514Z,0.70
2017-09-13T12:12:50.829Z,0.60
2017-09-13T12:15:19.172Z,0.43
2017-09-13T12:17:47.486Z,0.70
2017-09-13T12:20:15.806Z,0.70
2017-09-13T12:22:44.148Z,0.60
2017-09-13T12:25:12.468Z,0.63
2017-09-13T12:27:40.789Z,1.13
2017-09-13T12:30:09.134Z,0.50
2017-09-13T12:32:37.454Z,0.50
2017-09-13T12:35:05.798Z,0.70
2017-09-13T12:37:34.119Z,0.63
2017-09-13T12:40:02.443Z,0.70
2017-09-13T12:42:30.792Z,0.70
2017-09-13T12:44:59.882Z,0.43
2017-09-13T12:47:28.194Z,0.53
2017-09-13T12:49:56.526Z,0.93
2017-09-13T12:52:24.890Z,0.50
2017-09-13T12:54:53.237Z,0.70
2017-09-13T12:57:21.558Z,0.60
2017-09-13T12:59:49.878Z,0.80
2017-09-13T13:02:18.978Z,0.60
2017-09-13T13:04:48.086Z,1.07
2017-09-13T13:07:16.402Z,0.77
2017-09-13T13:09:44.752Z,0.37
2017-09-13T13:12:13.066Z,0.60
2017-09-13T13:14:41.376Z,1.00
2017-09-13T13:17:10.496Z,0.60
2017-09-13T13:19:39.574Z,0.40
2017-09-13T13:22:07.923Z,0.50
2017-09-13T13:24:36.251Z,2.73
2017-09-13T13:27:05.343Z,0.90
2017-09-13T13:29:34.453Z,0.50
2017-09-13T13:32:03.532Z,0.50
2017-09-13T13:34:32.642Z,0.53
2017-09-13T13:37:01.726Z,0.40
2017-09-13T13:39:30.811Z,0.40
2017-09-13T13:41:59.150Z,0.40
2017-09-13T13:44:27.469Z,0.57
2017-09-13T13:46:55.806Z,0.83
2017-09-13T13:49:24.115Z,0.73
2017-09-13T13:51:52.482Z,0.40
2017-09-13T13:54:20.813Z,0.53
2017-09-13T13:56:49.924Z,0.40
2017-09-13T13:59:18.251Z,0.50
2017-09-13T14:01:46.574Z,0.50
2017-09-13T14:04:15.680Z,0.60
2017-09-13T14:06:44.763Z,0.33
2017-09-13T14:09:13.877Z,0.70
2017-09-13T14:11:42.194Z,0.50
2017-09-13T14:14:10.510Z,0.47
2017-09-13T14:16:38.858Z,0.40
2017-09-13T14:19:07.169Z,0.40
2017-09-13T14:21:35.519Z,0.43
2017-09-13T14:24:03.851Z,0.43
2017-09-13T14:26:32.936Z,0.30
2017-09-13T14:29:02.055Z,0.50
2017-09-13T14:31:30.374Z,0.50
2017-09-13T14:33:58.718Z,0.40
2017-09-13T14:36:27.043Z,0.40
2017-09-13T14:38:55.387Z,0.40
2017-09-13T14:41:23.704Z,0.50
2017-09-13T14:43:52.018Z,0.50
2017-09-13T14:46:21.126Z,0.20
2017-09-13T14:48:49.438Z,0.40
2017-09-13T14:51:17.782Z,0.40
2017-09-13T14:53:46.866Z,0.30
2017-09-13T14:56:15.959Z,0.20
2017-09-13T14:58:45.066Z,0.30
2017-09-13T15:01:14.148Z,0.30
2017-09-13T15:03:43.263Z,0.37
2017-09-13T15:06:12.342Z,0.20
2017-09-13T15:08:40.682Z,0.27
2017-09-13T15:11:09.014Z,0.40
2017-09-13T15:13:38.104Z,0.50
2017-09-13T15:16:07.227Z,0.80
2017-09-13T15:18:35.552Z,0.73
2017-09-13T15:21:03.907Z,0.57
2017-09-13T15:23:32.227Z,0.70
2017-09-13T15:26:00.559Z,0.87
2017-09-13T15:28:28.900Z,0.80
2017-09-13T15:30:57.221Z,1.00
2017-09-13T15:33:25.574Z,1.00
2017-09-13T15:35:54.654Z,0.80
2017-09-13T15:38:22.979Z,0.70
2017-09-13T15:40:51.327Z,1.30
2017-09-13T15:43:20.411Z,1.00
2017-09-13T15:45:48.759Z,1.43
2017-09-13T15:48:17.074Z,1.13
2017-09-13T15:50:45.402Z,1.77
2017-09-13T15:53:13.757Z,0.90
2017-09-13T15:55:42.072Z,0.90
2017-09-13T15:58:09.672Z,1.00
2017-09-13T16:00:38.116Z,1.33
2017-09-13T16:03:06.449Z,1.10
2017-09-13T16:05:35.534Z,0.97
2017-09-13T16:08:03.883Z,1.13
2017-09-13T16:10:32.214Z,1.17
2017-09-13T16:13:01.295Z,1.30
2017-09-13T16:15:30.406Z,1.43
2017-09-13T16:17:59.486Z,1.40
2017-09-13T16:20:27.806Z,1.10
2017-09-13T16:22:56.146Z,1.30
2017-09-13T16:25:24.495Z,1.20
2017-09-13T16:27:52.823Z,1.10
2017-09-13T16:30:21.932Z,1.10
2017-09-13T16:32:50.256Z,1.07
2017-09-13T16:35:18.573Z,1.83
2017-09-13T16:37:47.687Z,1.40
2017-09-13T16:40:16.002Z,1.30
2017-09-13T16:42:44.326Z,1.33
2017-09-13T16:45:13.459Z,0.93
2017-09-13T16:47:41.779Z,1.70
2017-09-13T16:50:10.113Z,1.40
2017-09-13T16:52:38.455Z,1.40
2017-09-13T16:55:06.786Z,1.30
2017-09-13T16:57:35.115Z,1.17
2017-09-13T17:00:03.475Z,1.30
2017-09-13T17:02:31.795Z,1.20
2017-09-13T17:05:00.878Z,1.20
2017-09-13T17:07:29.990Z,1.03
2017-09-13T17:09:59.072Z,1.13
2017-09-13T17:12:27.395Z,1.20
2017-09-13T17:14:55.743Z,1.10
2017-09-13T17:17:24.851Z,0.80
2017-09-13T17:19:53.937Z,0.97
2017-09-13T17:22:23.057Z,1.00
2017-09-13T17:24:51.370Z,0.83
2017-09-13T17:27:19.714Z,0.90
2017-09-13T17:29:48.031Z,0.73
2017-09-13T17:32:16.350Z,0.57
2017-09-13T17:34:45.454Z,0.60
2017-09-13T17:37:14.594Z,0.90
2017-09-13T17:39:42.914Z,0.80
2017-09-13T17:42:11.267Z,1.40
2017-09-13T17:44:39.588Z,1.27
2017-09-13T17:47:08.671Z,0.50
2017-09-13T17:49:37.027Z,0.83
2017-09-13T17:52:05.347Z,1.03
2017-09-13T17:54:34.438Z,0.90
2017-09-13T17:57:03.558Z,0.93
2017-09-13T17:59:31.974Z,1.30
2017-09-13T18:02:01.147Z,1.27
2017-09-13T18:04:29.518Z,0.90
2017-09-13T18:06:57.926Z,1.43
2017-09-13T18:09:26.353Z,1.67
2017-09-13T18:11:55.483Z,1.10
2017-09-13T18:14:24.965Z,1.33
2017-09-13T18:16:53.346Z,0.87
2017-09-13T18:19:21.700Z,1.00
2017-09-13T18:21:50.019Z,1.10
2017-09-13T18:24:18.342Z,1.30
2017-09-13T18:26:46.690Z,1.20
2017-09-13T18:29:15.008Z,1.40
2017-09-13T18:31:43.322Z,0.80
2017-09-13T18:34:11.673Z,1.37
2017-09-13T18:36:39.289Z,1.33
2017-09-13T18:39:07.603Z,1.20
2017-09-13T18:41:35.950Z,1.07
2017-09-13T18:44:04.273Z,1.20
2017-09-13T18:46:32.606Z,1.40
2017-09-13T18:49:01.909Z,1.20
2017-09-13T18:51:31.023Z,1.80
2017-09-13T18:53:59.413Z,1.57
2017-09-13T18:56:28.530Z,1.20
2017-09-13T18:58:56.846Z,1.00
2017-09-13T19:01:25.197Z,1.27
2017-09-13T19:03:53.519Z,1.27
2017-09-13T19:06:21.877Z,2.00
2017-09-13T19:08:50.207Z,1.00
2017-09-13T19:11:19.301Z,1.07
2017-09-13T19:13:48.410Z,2.63
2017-09-13T19:16:16.738Z,3.47
2017-09-13T19:18:45.091Z,1.70
2017-09-13T19:21:13.411Z,1.60
2017-09-13T19:23:41.730Z,2.47
2017-09-13T19:26:10.839Z,1.30
2017-09-13T19:28:39.167Z,1.20
2017-09-13T19:31:07.482Z,1.90
2017-09-13T19:33:36.595Z,1.97
2017-09-13T19:36:04.926Z,1.63
2017-09-13T19:38:33.291Z,1.43
2017-09-13T19:41:01.614Z,1.43
2017-09-13T19:43:30.695Z,2.37
2017-09-13T19:45:59.035Z,3.30
2017-09-13T19:48:27.363Z,4.40
2017-09-13T19:50:56.449Z,2.30
2017-09-13T19:53:24.823Z,1.87
2017-09-13T19:55:53.134Z,2.07
2017-09-13T19:58:22.214Z,1.53
2017-09-13T20:00:50.564Z,1.70
2017-09-13T20:03:19.642Z,1.70
2017-09-13T20:05:47.958Z,1.77
2017-09-13T20:08:16.300Z,2.23
2017-09-13T20:10:44.624Z,3.23
2017-09-13T20:13:12.938Z,2.10
2017-09-13T20:15:41.277Z,1.53
2017-09-13T20:18:09.590Z,1.50
2017-09-13T20:20:38.727Z,1.07
2017-09-13T20:23:07.071Z,1.40
2017-09-13T20:25:36.156Z,1.20
2017-09-13T20:28:05.239Z,1.20
2017-09-13T20:30:33.583Z,1.00
2017-09-13T20:33:01.911Z,1.00
2017-09-13T20:35:30.999Z,1.37
2017-09-13T20:37:59.338Z,2.37
2017-09-13T20:40:27.655Z,1.50
2017-09-13T20:42:55.971Z,1.70
2017-09-13T20:45:24.338Z,1.83
2017-09-13T20:47:53.438Z,1.73
2017-09-13T20:50:22.556Z,1.60
2017-09-13T20:52:50.870Z,2.10
2017-09-13T20:55:19.181Z,2.27
2017-09-13T20:57:49.519Z,2.33
2017-09-13T21:00:17.866Z,1.90
2017-09-13T21:02:46.202Z,2.40
2017-09-13T21:05:14.542Z,2.20
2017-09-13T21:07:42.867Z,1.93
2017-09-13T21:10:11.188Z,1.97
2017-09-13T21:12:39.530Z,2.50
2017-09-13T21:15:07.838Z,2.73
2017-09-13T21:17:36.177Z,2.40
2017-09-13T21:20:04.559Z,2.60
2017-09-13T21:22:32.875Z,2.40
2017-09-13T21:25:01.191Z,7.00
2017-09-13T21:27:30.311Z,2.50
2017-09-13T21:29:58.629Z,2.47
2017-09-13T21:32:26.952Z,2.33
2017-09-13T21:34:56.062Z,1.97
2017-09-13T21:37:24.392Z,2.03
2017-09-13T21:39:52.707Z,1.87
2017-09-13T21:42:21.814Z,2.60
2017-09-13T21:44:50.903Z,1.63
2017-09-13T21:47:19.983Z,2.10
2017-09-13T21:49:48.329Z,2.30
2017-09-13T21:52:16.646Z,2.23
2017-09-13T21:54:44.976Z,2.40
2017-09-13T21:57:13.320Z,1.73
2017-09-13T21:59:42.410Z,2.17
2017-09-13T22:02:11.496Z,2.40
2017-09-13T22:04:39.835Z,1.83
2017-09-13T22:07:08.155Z,1.90
2017-09-13T22:09:36.474Z,1.77
2017-09-13T22:12:04.884Z,1.90
2017-09-13T22:14:33.200Z,2.10
2017-09-13T22:17:02.284Z,2.33
2017-09-13T22:19:30.630Z,2.03
2017-09-13T22:21:58.942Z,2.03
2017-09-13T22:24:27.262Z,1.33
2017-09-13T22:26:55.599Z,1.70
2017-09-13T22:37:05.399Z,2.20
2017-09-13T22:39:33.719Z,1.57
2017-09-13T22:42:02.831Z,1.70
2017-09-13T22:44:31.148Z,1.47
2017-09-13T22:46:59.486Z,1.60
2017-09-13T22:49:27.807Z,1.70
2017-09-13T22:51:56.149Z,1.50
2017-09-13T22:54:24.464Z,1.37
2017-09-13T22:56:52.805Z,1.60
2017-09-13T22:59:21.126Z,1.93
2017-09-13T23:01:49.444Z,1.23
2017-09-13T23:04:18.561Z,0.90
2017-09-13T23:06:46.884Z,1.40
2017-09-13T23:19:29.714Z,1.30
2017-09-13T23:21:58.791Z,1.07
2017-09-13T23:24:28.078Z,0.80
2017-09-13T23:26:56.423Z,0.97
2017-09-13T23:29:24.733Z,0.83
2017-09-13T23:31:53.082Z,0.80
2017-09-13T23:34:21.394Z,1.07
2017-09-13T23:36:49.734Z,0.60
2017-09-13T23:39:18.047Z,1.10
2017-09-13T23:41:46.375Z,0.80
2017-09-13T23:44:15.478Z,0.90
2017-09-13T23:46:44.560Z,0.80
2017-09-13T23:49:12.906Z,0.90
2017-09-13T23:51:41.218Z,0.70
2017-09-13T23:54:09.535Z,0.63
2017-09-13T23:56:37.873Z,0.77
2017-09-13T23:59:06.201Z,0.63
